createdAt,value
2023-05-20T00:00:29.492Z,0.50
2023-05-20T00:01:29.863Z,0.50
2023-05-20T00:02:29.649Z,0.50
2023-05-20T00:03:29.715Z,0.43
2023-05-20T00:04:29.526Z,0.38
2023-05-20T00:05:29.510Z,0.38
2023-05-20T00:06:29.512Z,0.39
2023-05-20T00:07:29.505Z,0.42
2023-05-20T00:08:29.535Z,0.44
2023-05-20T00:09:29.474Z,0.49
2023-05-20T00:10:29.472Z,0.50
2023-05-20T00:11:29.466Z,0.50
2023-05-20T00:12:29.455Z,0.50
2023-05-20T00:13:29.529Z,0.50
2023-05-20T00:14:29.450Z,0.50
2023-05-20T00:15:29.419Z,0.50
2023-05-20T00:16:29.453Z,0.50
2023-05-20T00:17:29.424Z,0.51
2023-05-20T00:18:29.385Z,0.50
2023-05-20T00:19:29.477Z,0.50
2023-05-20T00:20:29.369Z,0.50
2023-05-20T00:21:29.346Z,0.50
2023-05-20T00:22:29.339Z,0.50
2023-05-20T00:23:29.331Z,0.50
2023-05-20T00:24:29.326Z,0.50
2023-05-20T00:25:29.318Z,0.50
2023-05-20T00:26:29.314Z,0.50
2023-05-20T00:27:29.309Z,0.51
2023-05-20T00:28:29.309Z,0.50
2023-05-20T00:29:29.327Z,0.50
2023-05-20T00:30:29.335Z,0.50
2023-05-20T00:31:29.300Z,0.51
2023-05-20T00:32:29.337Z,0.50
2023-05-20T00:33:29.275Z,0.50
2023-05-20T00:34:29.267Z,0.51
2023-05-20T00:35:29.261Z,0.51
2023-05-20T00:36:29.265Z,0.50
2023-05-20T00:37:29.248Z,0.50
2023-05-20T00:38:29.255Z,0.50
2023-05-20T00:39:29.259Z,0.51
2023-05-20T00:40:29.273Z,0.52
2023-05-20T00:41:29.294Z,0.50
2023-05-20T00:42:29.311Z,0.50
2023-05-20T00:43:29.314Z,0.50
2023-05-20T00:44:29.303Z,0.50
2023-05-20T00:45:29.354Z,0.51
2023-05-20T00:46:29.575Z,0.51
2023-05-20T00:47:29.319Z,0.51
2023-05-20T00:48:29.303Z,0.50
2023-05-20T00:49:29.312Z,0.50
2023-05-20T00:50:29.302Z,0.51
2023-05-20T00:51:29.309Z,0.51
2023-05-20T00:52:29.304Z,0.51
2023-05-20T00:53:29.302Z,0.51
2023-05-20T00:54:29.320Z,0.51
2023-05-20T00:55:29.310Z,0.51
2023-05-20T00:56:29.321Z,0.51
2023-05-20T00:57:29.324Z,0.51
2023-05-20T00:58:29.303Z,0.51
2023-05-20T00:59:29.303Z,0.51
2023-05-20T01:00:29.309Z,0.51
2023-05-20T01:01:29.362Z,0.51
2023-05-20T01:02:29.362Z,0.51
2023-05-20T01:03:29.495Z,0.51
2023-05-20T01:04:29.314Z,0.50
2023-05-20T01:05:29.317Z,0.51
2023-05-20T01:06:29.308Z,0.51
2023-05-20T01:07:29.332Z,0.51
2023-05-20T01:08:29.326Z,0.50
2023-05-20T01:09:29.322Z,0.51
2023-05-20T01:10:29.345Z,0.51
2023-05-20T01:11:29.313Z,0.51
2023-05-20T01:12:29.303Z,0.51
2023-05-20T01:13:29.311Z,0.51
2023-05-20T01:14:29.296Z,0.51
2023-05-20T01:15:29.417Z,0.50
2023-05-20T01:16:29.353Z,0.50
2023-05-20T01:17:29.328Z,0.50
2023-05-20T01:18:29.298Z,0.51
2023-05-20T01:19:29.378Z,0.51
2023-05-20T01:20:29.286Z,0.50
2023-05-20T01:21:29.274Z,0.51
2023-05-20T01:22:29.280Z,0.51
2023-05-20T01:23:29.266Z,0.51
2023-05-20T01:24:29.267Z,0.51
2023-05-20T01:25:29.318Z,0.51
2023-05-20T01:26:29.265Z,0.51
2023-05-20T01:27:29.271Z,0.51
2023-05-20T01:28:29.263Z,0.50
2023-05-20T01:29:29.274Z,0.51
2023-05-20T01:30:29.270Z,0.51
2023-05-20T01:31:29.303Z,0.51
2023-05-20T01:32:29.285Z,0.51
2023-05-20T01:33:29.294Z,0.51
2023-05-20T01:34:29.279Z,0.51
2023-05-20T01:35:29.284Z,0.51
2023-05-20T01:36:29.285Z,0.51
2023-05-20T01:37:29.276Z,0.51
2023-05-20T01:38:29.285Z,0.51
2023-05-20T01:39:29.280Z,0.50
2023-05-20T01:40:29.291Z,0.50
2023-05-20T01:41:29.289Z,0.51
2023-05-20T01:42:29.282Z,0.51
2023-05-20T01:43:29.289Z,0.50
2023-05-20T01:44:29.279Z,0.52
2023-05-20T01:45:29.271Z,0.51
2023-05-20T01:46:29.427Z,0.52
2023-05-20T01:47:29.310Z,0.52
2023-05-20T01:48:29.310Z,0.52
2023-05-20T01:49:29.344Z,0.51
2023-05-20T01:50:29.351Z,0.51
2023-05-20T01:51:29.359Z,0.50
2023-05-20T01:52:29.472Z,0.51
2023-05-20T01:53:29.376Z,0.51
2023-05-20T01:54:29.398Z,0.52
2023-05-20T01:55:29.401Z,0.51
2023-05-20T01:56:29.427Z,0.51
2023-05-20T01:57:29.475Z,0.51
2023-05-20T01:58:29.486Z,0.51
2023-05-20T01:59:29.522Z,0.50
2023-05-20T02:00:29.551Z,0.51
2023-05-20T02:01:29.658Z,0.52
2023-05-20T02:02:29.719Z,0.51
2023-05-20T02:03:29.624Z,0.50
2023-05-20T02:04:29.674Z,0.51
2023-05-20T02:05:29.749Z,0.51
2023-05-20T02:06:29.729Z,0.50
2023-05-20T02:07:29.737Z,0.51
2023-05-20T02:08:29.772Z,0.51
2023-05-20T02:09:29.819Z,0.50
2023-05-20T02:10:29.839Z,0.51
2023-05-20T02:11:29.842Z,0.51
2023-05-20T02:12:29.860Z,0.51
2023-05-20T02:13:29.890Z,0.51
2023-05-20T02:14:29.904Z,0.51
2023-05-20T02:15:29.938Z,0.51
2023-05-20T02:16:30.105Z,0.51
2023-05-20T02:17:30.017Z,0.51
2023-05-20T02:18:30.009Z,0.50
2023-05-20T02:19:30.240Z,0.50
2023-05-20T02:20:30.080Z,0.50
2023-05-20T02:21:30.161Z,0.52
2023-05-20T02:22:30.150Z,0.51
2023-05-20T02:23:30.195Z,0.51
2023-05-20T02:24:30.205Z,0.51
2023-05-20T02:25:30.254Z,0.51
2023-05-20T02:26:30.276Z,0.50
2023-05-20T02:27:30.304Z,0.51
2023-05-20T02:28:30.361Z,0.50
2023-05-20T02:29:30.390Z,0.50
2023-05-20T02:30:30.422Z,0.51
2023-05-20T02:31:30.482Z,0.51
2023-05-20T02:32:30.477Z,0.51
2023-05-20T02:33:30.514Z,0.51
2023-05-20T02:34:30.592Z,0.51
2023-05-20T02:35:30.573Z,0.51
2023-05-20T02:36:30.619Z,0.51
2023-05-20T02:37:30.704Z,0.52
2023-05-20T02:38:30.742Z,0.51
2023-05-20T02:39:30.798Z,0.51
2023-05-20T02:40:30.840Z,0.51
2023-05-20T02:41:30.887Z,0.50
2023-05-20T02:42:30.943Z,0.51
2023-05-20T02:43:31.009Z,0.51
2023-05-20T02:44:31.025Z,0.50
2023-05-20T02:45:31.060Z,0.52
2023-05-20T02:46:31.193Z,0.50
2023-05-20T02:47:31.127Z,0.51
2023-05-20T02:48:31.133Z,0.51
2023-05-20T02:49:31.156Z,0.52
2023-05-20T02:50:31.179Z,0.51
2023-05-20T02:51:31.203Z,0.51
2023-05-20T02:52:31.239Z,0.52
2023-05-20T02:53:31.300Z,0.51
2023-05-20T02:54:31.261Z,0.51
2023-05-20T02:55:31.393Z,0.51
2023-05-20T02:56:31.271Z,0.51
2023-05-20T02:57:31.317Z,0.52
2023-05-20T02:58:31.391Z,0.51
2023-05-20T02:59:31.438Z,0.51
2023-05-20T03:00:31.509Z,0.51
2023-05-20T03:01:31.596Z,0.52
2023-05-20T03:02:31.596Z,0.51
2023-05-20T03:03:31.650Z,0.52
2023-05-20T03:04:31.776Z,0.51
2023-05-20T03:05:31.941Z,0.51
2023-05-20T03:06:31.791Z,0.50
2023-05-20T03:07:31.841Z,0.51
2023-05-20T03:08:31.891Z,0.51
2023-05-20T03:09:31.991Z,0.52
2023-05-20T03:10:32.010Z,0.51
2023-05-20T03:11:32.072Z,0.51
2023-05-20T03:12:32.129Z,0.51
2023-05-20T03:13:32.170Z,0.52
2023-05-20T03:14:32.217Z,0.51
2023-05-20T03:15:32.433Z,0.51
2023-05-20T03:16:32.391Z,0.51
2023-05-20T03:17:32.413Z,0.51
2023-05-20T03:18:32.449Z,0.52
2023-05-20T03:19:32.513Z,0.51
2023-05-20T03:20:32.569Z,0.50
2023-05-20T03:21:32.607Z,0.51
2023-05-20T03:22:32.674Z,0.51
2023-05-20T03:23:32.706Z,0.51
2023-05-20T03:24:32.760Z,0.51
2023-05-20T03:25:33.049Z,0.51
2023-05-20T03:26:32.850Z,0.50
2023-05-20T03:27:32.892Z,0.51
2023-05-20T03:28:32.851Z,0.51
2023-05-20T03:29:32.878Z,0.51
2023-05-20T03:30:33.483Z,0.51
2023-05-20T03:31:33.115Z,0.51
2023-05-20T03:32:33.064Z,0.51
2023-05-20T03:33:33.073Z,0.52
2023-05-20T03:34:33.088Z,0.51
2023-05-20T03:35:33.339Z,0.51
2023-05-20T03:36:33.189Z,0.52
2023-05-20T03:37:33.248Z,0.52
2023-05-20T03:38:33.324Z,0.51
2023-05-20T03:39:33.352Z,0.53
2023-05-20T03:40:33.435Z,0.51
2023-05-20T03:41:33.469Z,0.51
2023-05-20T03:42:33.494Z,0.52
2023-05-20T03:43:33.548Z,0.52
2023-05-20T03:44:33.560Z,0.52
2023-05-20T03:45:33.807Z,0.51
2023-05-20T03:46:33.722Z,0.50
2023-05-20T03:47:33.717Z,0.52
2023-05-20T03:48:33.723Z,0.51
2023-05-20T03:49:33.752Z,0.51
2023-05-20T03:50:33.793Z,0.52
2023-05-20T03:51:33.815Z,0.51
2023-05-20T03:52:33.857Z,0.51
2023-05-20T03:53:33.874Z,0.51
2023-05-20T03:54:33.881Z,0.52
2023-05-20T03:55:34.174Z,0.52
2023-05-20T03:56:33.965Z,0.52
2023-05-20T03:57:34.054Z,0.51
2023-05-20T03:58:34.047Z,0.51
2023-05-20T03:59:34.083Z,0.50
2023-05-20T04:00:34.108Z,0.52
2023-05-20T04:01:34.190Z,0.52
2023-05-20T04:02:34.273Z,0.51
2023-05-20T04:03:34.331Z,0.51
2023-05-20T04:04:34.275Z,0.51
2023-05-20T04:05:34.646Z,0.52
2023-05-20T04:06:34.333Z,0.51
2023-05-20T04:07:34.353Z,0.50
2023-05-20T04:08:34.396Z,0.52
2023-05-20T04:09:34.443Z,0.50
2023-05-20T04:10:34.477Z,0.52
2023-05-20T04:11:34.533Z,0.52
2023-05-20T04:12:34.543Z,0.52
2023-05-20T04:13:34.603Z,0.52
2023-05-20T04:14:34.629Z,0.52
2023-05-20T04:15:34.905Z,0.52
2023-05-20T04:16:34.729Z,0.52
2023-05-20T04:17:34.765Z,0.52
2023-05-20T04:18:34.785Z,0.52
2023-05-20T04:19:34.836Z,0.53
2023-05-20T04:20:34.860Z,0.51
2023-05-20T04:21:34.928Z,0.52
2023-05-20T04:22:34.989Z,0.51
2023-05-20T04:23:35.057Z,0.52
2023-05-20T04:24:35.119Z,0.53
2023-05-20T04:25:35.249Z,0.53
2023-05-20T04:26:35.216Z,0.51
2023-05-20T04:27:35.278Z,0.52
2023-05-20T04:28:35.316Z,0.53
2023-05-20T04:29:35.405Z,0.53
2023-05-20T04:30:35.434Z,0.52
2023-05-20T04:31:35.525Z,0.53
2023-05-20T04:32:35.573Z,0.52
2023-05-20T04:33:35.588Z,0.53
2023-05-20T04:34:35.652Z,0.53
2023-05-20T04:35:35.984Z,0.53
2023-05-20T04:36:35.754Z,0.52
2023-05-20T04:37:35.799Z,0.53
2023-05-20T04:38:35.856Z,0.53
2023-05-20T04:39:35.901Z,0.53
2023-05-20T04:40:35.939Z,0.53
2023-05-20T04:41:35.965Z,0.53
2023-05-20T04:42:36.000Z,0.52
2023-05-20T04:43:36.037Z,0.53
2023-05-20T04:44:36.094Z,0.53
2023-05-20T04:45:36.267Z,0.53
2023-05-20T04:46:36.379Z,0.52
2023-05-20T04:47:36.270Z,0.53
2023-05-20T04:48:36.287Z,0.53
2023-05-20T04:49:36.326Z,0.52
2023-05-20T04:50:36.373Z,0.52
2023-05-20T04:51:36.440Z,0.52
2023-05-20T04:52:36.495Z,0.53
2023-05-20T04:53:36.535Z,0.53
2023-05-20T04:54:36.592Z,0.53
2023-05-20T04:55:36.654Z,0.53
2023-05-20T04:56:36.715Z,0.51
2023-05-20T04:57:36.779Z,0.53
2023-05-20T04:58:36.857Z,0.53
2023-05-20T04:59:36.902Z,0.52
2023-05-20T05:00:36.945Z,0.52
2023-05-20T05:01:37.092Z,0.52
2023-05-20T05:02:37.081Z,0.53
2023-05-20T05:03:37.161Z,0.52
2023-05-20T05:04:37.209Z,0.52
2023-05-20T05:05:37.243Z,0.53
2023-05-20T05:06:37.302Z,0.52
2023-05-20T05:07:37.378Z,0.53
2023-05-20T05:08:37.426Z,0.52
2023-05-20T05:09:37.484Z,0.52
2023-05-20T05:10:37.539Z,0.50
2023-05-20T05:11:37.595Z,0.52
2023-05-20T05:12:37.641Z,0.52
2023-05-20T05:13:37.695Z,0.52
2023-05-20T05:14:37.750Z,0.51
2023-05-20T05:15:37.864Z,0.52
2023-05-20T05:16:37.884Z,0.52
2023-05-20T05:17:37.964Z,0.51
2023-05-20T05:18:37.948Z,0.53
2023-05-20T05:19:38.009Z,0.53
2023-05-20T05:20:38.036Z,0.52
2023-05-20T05:21:38.086Z,0.52
2023-05-20T05:22:38.140Z,0.52
2023-05-20T05:23:38.196Z,0.53
2023-05-20T05:24:38.248Z,0.51
2023-05-20T05:25:38.304Z,0.51
2023-05-20T05:26:38.355Z,0.53
2023-05-20T05:27:38.401Z,0.54
2023-05-20T05:28:38.465Z,0.52
2023-05-20T05:29:38.520Z,0.53
2023-05-20T05:30:38.563Z,0.53
2023-05-20T05:31:38.614Z,0.52
2023-05-20T05:32:38.773Z,0.53
2023-05-20T05:33:38.805Z,0.52
2023-05-20T05:34:38.773Z,0.54
2023-05-20T05:35:38.825Z,0.52
2023-05-20T05:36:38.869Z,0.53
2023-05-20T05:37:38.927Z,0.53
2023-05-20T05:38:38.999Z,0.52
2023-05-20T05:39:39.024Z,0.52
2023-05-20T05:40:39.068Z,0.52
2023-05-20T05:41:39.113Z,0.52
2023-05-20T05:42:39.162Z,0.53
2023-05-20T05:43:39.227Z,0.54
2023-05-20T05:44:39.276Z,0.53
2023-05-20T05:45:39.337Z,0.53
2023-05-20T05:46:39.404Z,0.53
2023-05-20T05:47:39.480Z,0.53
2023-05-20T05:48:39.498Z,0.52
2023-05-20T05:49:39.559Z,0.53
2023-05-20T05:50:39.598Z,0.52
2023-05-20T05:51:39.636Z,0.52
2023-05-20T05:52:39.686Z,0.54
2023-05-20T05:53:39.729Z,0.52
2023-05-20T05:54:39.815Z,0.52
2023-05-20T05:55:39.849Z,0.52
2023-05-20T05:56:39.909Z,0.52
2023-05-20T05:57:39.961Z,0.53
2023-05-20T05:58:40.001Z,0.51
2023-05-20T05:59:40.054Z,0.53
2023-05-20T06:00:40.148Z,0.53
2023-05-20T06:01:40.204Z,0.52
2023-05-20T06:02:40.375Z,0.52
2023-05-20T06:03:40.322Z,0.53
2023-05-20T06:04:40.307Z,0.53
2023-05-20T06:05:40.382Z,0.53
2023-05-20T06:06:40.397Z,0.52
2023-05-20T06:07:40.450Z,0.53
2023-05-20T06:08:40.509Z,0.54
2023-05-20T06:09:40.547Z,0.53
2023-05-20T06:10:40.605Z,0.53
2023-05-20T06:11:40.667Z,0.53
2023-05-20T06:12:40.696Z,0.53
2023-05-20T06:13:40.744Z,0.53
2023-05-20T06:14:40.789Z,0.52
2023-05-20T06:15:40.830Z,0.52
2023-05-20T06:16:40.950Z,0.52
2023-05-20T06:17:40.963Z,0.53
2023-05-20T06:18:41.034Z,0.53
2023-05-20T06:19:41.084Z,0.53
2023-05-20T06:20:41.076Z,0.52
2023-05-20T06:21:41.152Z,0.52
2023-05-20T06:22:41.175Z,0.50
2023-05-20T06:23:41.224Z,0.53
2023-05-20T06:24:41.267Z,0.52
2023-05-20T06:25:41.315Z,0.53
2023-05-20T06:26:41.361Z,0.53
2023-05-20T06:27:41.414Z,0.51
2023-05-20T06:28:41.457Z,0.53
2023-05-20T06:29:43.673Z,0.53
2023-05-20T06:30:41.510Z,0.54
2023-05-20T06:31:41.465Z,0.53
2023-05-20T06:32:41.523Z,0.51
2023-05-20T06:33:41.428Z,0.54
2023-05-20T06:34:41.413Z,0.51
2023-05-20T06:35:41.403Z,0.54
2023-05-20T06:36:41.380Z,0.53
2023-05-20T06:37:41.430Z,0.53
2023-05-20T06:38:41.352Z,0.54
2023-05-20T06:39:41.325Z,0.53
2023-05-20T06:40:41.315Z,0.52
2023-05-20T06:41:41.310Z,0.54
2023-05-20T06:42:41.323Z,0.54
2023-05-20T06:43:41.293Z,0.54
2023-05-20T06:44:41.275Z,0.53
2023-05-20T06:45:41.257Z,0.54
2023-05-20T06:46:41.296Z,0.52
2023-05-20T06:47:41.274Z,0.54
2023-05-20T06:48:41.230Z,0.53
2023-05-20T06:49:41.208Z,0.51
2023-05-20T06:50:41.208Z,0.53
2023-05-20T06:51:41.221Z,0.54
2023-05-20T06:52:41.179Z,0.54
2023-05-20T06:53:41.253Z,0.53
2023-05-20T06:54:41.258Z,0.53
2023-05-20T06:55:41.319Z,0.53
2023-05-20T06:56:41.374Z,0.53
2023-05-20T06:57:41.434Z,0.54
2023-05-20T06:58:41.470Z,0.53
2023-05-20T06:59:41.526Z,0.53
2023-05-20T07:00:41.572Z,0.54
2023-05-20T07:01:41.712Z,0.54
2023-05-20T07:02:41.727Z,0.54
2023-05-20T07:03:41.795Z,0.54
2023-05-20T07:04:41.782Z,0.53
2023-05-20T07:05:41.848Z,0.54
2023-05-20T07:06:41.901Z,0.53
2023-05-20T07:07:41.961Z,0.54
2023-05-20T07:08:42.020Z,0.55
2023-05-20T07:09:42.081Z,0.54
2023-05-20T07:10:42.110Z,0.54
2023-05-20T07:11:42.162Z,0.55
2023-05-20T07:12:42.237Z,0.54
2023-05-20T07:13:42.283Z,0.54
2023-05-20T07:14:42.319Z,0.53
2023-05-20T07:15:42.435Z,0.55
2023-05-20T07:16:42.478Z,0.55
2023-05-20T07:17:42.588Z,0.55
2023-05-20T07:18:42.614Z,0.54
2023-05-20T07:19:42.608Z,0.55
2023-05-20T07:20:42.682Z,0.54
2023-05-20T07:21:42.705Z,0.55
2023-05-20T07:22:42.759Z,0.54
2023-05-20T07:23:42.814Z,0.53
2023-05-20T07:24:42.876Z,0.54
2023-05-20T07:25:42.948Z,0.53
2023-05-20T07:26:42.964Z,0.56
2023-05-20T07:27:43.009Z,0.54
2023-05-20T07:28:43.055Z,0.55
2023-05-20T07:29:43.100Z,0.54
2023-05-20T07:30:43.149Z,0.54
2023-05-20T07:31:43.219Z,0.54
2023-05-20T07:32:43.286Z,0.54
2023-05-20T07:33:43.306Z,0.54
2023-05-20T07:34:43.353Z,0.55
2023-05-20T07:35:43.409Z,0.54
2023-05-20T07:36:43.526Z,0.54
2023-05-20T07:37:43.522Z,0.54
2023-05-20T07:38:56.502Z,0.54
2023-05-20T07:39:43.559Z,0.54
2023-05-20T07:40:43.550Z,0.55
2023-05-20T07:41:43.553Z,0.55
2023-05-20T07:42:43.515Z,0.54
2023-05-20T07:43:43.524Z,0.55
2023-05-20T07:44:43.502Z,0.55
2023-05-20T07:45:43.560Z,0.56
2023-05-20T07:46:43.557Z,0.56
2023-05-20T07:47:43.488Z,0.56
2023-05-20T07:48:43.457Z,0.56
2023-05-20T07:49:43.442Z,0.56
2023-05-20T07:50:43.466Z,0.54
2023-05-20T07:51:43.429Z,0.54
2023-05-20T07:52:55.050Z,0.54
2023-05-20T07:53:43.385Z,0.54
2023-05-20T07:54:43.379Z,0.55
2023-05-20T07:55:43.351Z,0.55
2023-05-20T07:56:43.342Z,0.55
2023-05-20T07:57:44.775Z,0.56
2023-05-20T07:58:43.454Z,0.57
2023-05-20T07:59:43.510Z,0.56
2023-05-20T08:00:43.572Z,0.56
2023-05-20T08:01:43.605Z,0.54
2023-05-20T08:02:43.734Z,0.55
2023-05-20T08:03:43.817Z,0.55
2023-05-20T08:04:43.826Z,0.53
2023-05-20T08:05:43.825Z,0.56
2023-05-20T08:06:43.853Z,0.52
2023-05-20T08:07:43.905Z,0.56
2023-05-20T08:08:43.956Z,0.56
2023-05-20T08:09:44.008Z,0.56
2023-05-20T08:10:44.069Z,0.57
2023-05-20T08:11:45.821Z,0.55
2023-05-20T08:12:44.102Z,0.55
2023-05-20T08:13:44.125Z,0.55
2023-05-20T08:14:44.088Z,0.55
2023-05-20T08:15:44.086Z,0.56
2023-05-20T08:16:44.095Z,0.55
2023-05-20T08:17:44.111Z,0.55
2023-05-20T08:18:44.088Z,0.56
2023-05-20T08:19:44.018Z,0.56
2023-05-20T08:20:44.012Z,0.55
2023-05-20T08:21:43.986Z,0.56
2023-05-20T08:22:43.981Z,0.55
2023-05-20T08:23:43.999Z,0.55
2023-05-20T08:24:43.978Z,0.55
2023-05-20T08:25:43.953Z,0.55
2023-05-20T08:26:43.933Z,0.56
2023-05-20T08:27:43.921Z,0.56
2023-05-20T08:28:43.909Z,0.56
2023-05-20T08:29:43.925Z,0.54
2023-05-20T08:30:43.908Z,0.55
2023-05-20T08:31:43.936Z,0.55
2023-05-20T08:32:43.907Z,0.57
2023-05-20T08:33:43.935Z,0.56
2023-05-20T08:34:43.921Z,0.56
2023-05-20T08:35:43.981Z,0.56
2023-05-20T08:36:44.040Z,0.54
2023-05-20T08:37:44.072Z,0.55
2023-05-20T08:38:44.133Z,0.56
2023-05-20T08:39:44.159Z,0.55
2023-05-20T08:40:44.212Z,0.56
2023-05-20T08:41:44.264Z,0.56
2023-05-20T08:42:44.327Z,0.54
2023-05-20T08:43:44.367Z,0.57
2023-05-20T08:44:44.415Z,0.54
2023-05-20T08:45:44.504Z,0.56
2023-05-20T08:46:44.560Z,0.55
2023-05-20T08:47:44.622Z,0.56
2023-05-20T08:48:44.633Z,0.54
2023-05-20T08:49:44.674Z,0.57
2023-05-20T08:50:44.722Z,0.56
2023-05-20T08:51:44.767Z,0.55
2023-05-20T08:52:44.815Z,0.56
2023-05-20T08:53:44.864Z,0.56
2023-05-20T08:54:44.912Z,0.57
2023-05-20T08:55:44.952Z,0.56
2023-05-20T08:56:44.994Z,0.57
2023-05-20T08:57:45.040Z,0.55
2023-05-20T08:58:45.084Z,0.56
2023-05-20T08:59:45.120Z,0.57
2023-05-20T09:00:45.170Z,0.56
2023-05-20T09:01:45.410Z,0.54
2023-05-20T09:02:45.311Z,0.57
2023-05-20T09:03:45.328Z,0.55
2023-05-20T09:04:45.420Z,0.53
2023-05-20T09:05:45.404Z,0.53
2023-05-20T09:06:45.474Z,0.56
2023-05-20T09:07:46.057Z,0.56
2023-05-20T09:08:45.543Z,0.56
2023-05-20T09:09:45.591Z,0.57
2023-05-20T09:10:45.626Z,0.56
2023-05-20T09:11:45.679Z,0.57
2023-05-20T09:12:45.716Z,0.57
2023-05-20T09:13:45.769Z,0.55
2023-05-20T09:14:45.812Z,0.55
2023-05-20T09:15:45.997Z,0.56
2023-05-20T09:16:45.947Z,0.56
2023-05-20T09:17:46.006Z,0.56
2023-05-20T09:18:46.037Z,0.57
2023-05-20T09:19:46.023Z,0.56
2023-05-20T09:20:46.088Z,0.57
2023-05-20T09:21:46.117Z,0.55
2023-05-20T09:22:46.164Z,0.56
2023-05-20T09:23:46.205Z,0.55
2023-05-20T09:24:46.236Z,0.56
2023-05-20T09:25:47.060Z,0.56
2023-05-20T09:26:46.324Z,0.56
2023-05-20T09:27:46.366Z,0.57
2023-05-20T09:28:46.417Z,0.55
2023-05-20T09:29:46.440Z,0.57
2023-05-20T09:30:46.483Z,0.58
2023-05-20T09:31:46.569Z,0.57
2023-05-20T09:32:46.606Z,0.57
2023-05-20T09:33:46.626Z,0.55
2023-05-20T09:34:46.641Z,0.54
2023-05-20T09:35:46.679Z,0.58
2023-05-20T09:36:46.725Z,0.55
2023-05-20T09:37:46.777Z,0.58
2023-05-20T09:38:46.813Z,0.57
2023-05-20T09:39:46.853Z,0.57
2023-05-20T09:40:46.893Z,0.57
2023-05-20T09:41:46.930Z,0.58
2023-05-20T09:42:46.964Z,0.55
2023-05-20T09:43:47.005Z,0.58
2023-05-20T09:44:47.047Z,0.57
2023-05-20T09:45:47.086Z,0.57
2023-05-20T09:46:47.123Z,0.57
2023-05-20T09:47:47.211Z,0.56
2023-05-20T09:48:47.203Z,0.56
2023-05-20T09:49:47.283Z,0.58
2023-05-20T09:50:47.291Z,0.56
2023-05-20T09:51:47.325Z,0.58
2023-05-20T09:52:47.374Z,0.57
2023-05-20T09:53:47.421Z,0.57
2023-05-20T09:54:47.446Z,0.57
2023-05-20T09:55:47.493Z,0.59
2023-05-20T09:56:47.558Z,0.56
2023-05-20T09:57:47.582Z,0.55
2023-05-20T09:58:47.671Z,0.58
2023-05-20T09:59:47.664Z,0.55
2023-05-20T10:00:47.708Z,0.54
2023-05-20T10:01:47.773Z,0.59
2023-05-20T10:02:47.868Z,0.59
2023-05-20T10:03:47.967Z,0.59
2023-05-20T10:04:47.877Z,0.59
2023-05-20T10:05:47.937Z,0.57
2023-05-20T10:06:47.943Z,0.54
2023-05-20T10:07:47.993Z,0.56
2023-05-20T10:08:48.030Z,0.57
2023-05-20T10:09:48.061Z,0.57
2023-05-20T10:10:48.096Z,0.58
2023-05-20T10:11:48.135Z,0.59
2023-05-20T10:12:48.157Z,0.58
2023-05-20T10:13:48.196Z,0.58
2023-05-20T10:14:48.235Z,0.57
2023-05-20T10:15:48.310Z,0.56
2023-05-20T10:16:48.304Z,0.57
2023-05-20T10:17:48.384Z,0.58
2023-05-20T10:18:48.416Z,0.56
2023-05-20T10:19:48.418Z,0.56
2023-05-20T10:20:48.503Z,0.58
2023-05-20T10:21:48.516Z,0.57
2023-05-20T10:22:48.531Z,0.57
2023-05-20T10:23:48.566Z,0.59
2023-05-20T10:24:48.615Z,0.58
2023-05-20T10:25:48.641Z,0.57
2023-05-20T10:26:48.682Z,0.59
2023-05-20T10:27:48.723Z,0.56
2023-05-20T10:28:48.762Z,0.59
2023-05-20T10:30:47.813Z,0.58
2023-05-20T10:31:48.851Z,0.55
2023-05-20T10:32:49.089Z,0.58
2023-05-20T10:33:48.978Z,0.56
2023-05-20T10:34:48.962Z,0.59
2023-05-20T10:35:48.996Z,0.56
2023-05-20T10:36:49.025Z,0.59
2023-05-20T10:37:49.092Z,0.56
2023-05-20T10:38:49.097Z,0.56
2023-05-20T10:39:49.132Z,0.55
2023-05-20T10:40:49.159Z,0.57
2023-05-20T10:41:49.203Z,0.57
2023-05-20T10:42:49.231Z,0.60
2023-05-20T10:43:49.257Z,0.58
2023-05-20T10:44:49.293Z,0.58
2023-05-20T10:45:49.323Z,0.59
2023-05-20T10:47:48.372Z,0.58
2023-05-20T10:48:49.423Z,0.57
2023-05-20T10:49:49.290Z,0.59
2023-05-20T10:50:49.270Z,0.60
2023-05-20T10:51:49.262Z,0.61
2023-05-20T10:52:49.238Z,0.59
2023-05-20T10:53:49.236Z,0.59
2023-05-20T10:54:51.634Z,0.59
2023-05-20T10:55:49.178Z,0.59
2023-05-20T10:56:49.157Z,0.59
2023-05-20T10:57:49.141Z,0.60
2023-05-20T10:58:49.131Z,0.57
2023-05-20T10:59:49.111Z,0.59
2023-05-20T11:00:50.820Z,0.61
2023-05-20T11:01:49.069Z,0.59
2023-05-20T11:02:49.124Z,0.60
2023-05-20T11:03:49.171Z,0.61
2023-05-20T11:04:49.013Z,0.60
2023-05-20T11:05:49.004Z,0.60
2023-05-20T11:06:48.986Z,0.59
2023-05-20T11:07:48.966Z,0.59
2023-05-20T11:08:48.958Z,0.60
2023-05-20T11:09:48.966Z,0.62
2023-05-20T11:10:48.918Z,0.59
2023-05-20T11:11:48.912Z,0.59
2023-05-20T11:12:49.029Z,0.56
2023-05-20T11:13:48.882Z,0.60
2023-05-20T11:14:48.864Z,0.59
2023-05-20T11:15:48.846Z,0.57
2023-05-20T11:16:48.889Z,0.60
2023-05-20T11:17:49.006Z,0.57
2023-05-20T11:18:48.845Z,0.61
2023-05-20T11:19:48.814Z,0.59
2023-05-20T11:20:48.786Z,0.58
2023-05-20T11:21:48.777Z,0.58
2023-05-20T11:22:48.759Z,0.59
2023-05-20T11:23:48.739Z,0.59
2023-05-20T11:24:48.725Z,0.59
2023-05-20T11:25:48.729Z,0.57
2023-05-20T11:26:48.696Z,0.58
2023-05-20T11:27:48.687Z,0.62
2023-05-20T11:28:48.668Z,0.55
2023-05-20T11:29:48.637Z,0.56
2023-05-20T11:30:48.624Z,0.59
2023-05-20T11:31:48.627Z,0.58
2023-05-20T11:32:48.621Z,0.59
2023-05-20T11:33:48.578Z,0.59
2023-05-20T11:34:48.603Z,0.58
2023-05-20T11:35:48.630Z,0.60
2023-05-20T11:36:48.652Z,0.60
2023-05-20T11:37:48.676Z,0.61
2023-05-20T11:38:48.700Z,0.60
2023-05-20T11:39:48.729Z,0.58
2023-05-20T11:40:50.939Z,0.59
2023-05-20T11:41:48.838Z,0.61
2023-05-20T11:42:48.716Z,0.62
2023-05-20T11:43:48.688Z,0.62
2023-05-20T11:44:48.664Z,0.61
2023-05-20T11:45:48.720Z,0.63
2023-05-20T11:46:48.613Z,0.59
2023-05-20T11:47:48.744Z,0.59
2023-05-20T11:48:48.578Z,0.61
2023-05-20T11:49:48.557Z,0.60
2023-05-20T11:50:48.548Z,0.59
2023-05-20T11:51:48.523Z,0.60
2023-05-20T11:52:48.504Z,0.60
2023-05-20T11:53:48.487Z,0.58
2023-05-20T11:54:48.456Z,0.58
2023-05-20T11:55:48.470Z,0.59
2023-05-20T11:56:48.427Z,0.62
2023-05-20T11:57:48.432Z,0.61
2023-05-20T11:58:48.389Z,0.57
2023-05-20T11:59:48.369Z,0.60
2023-05-20T12:00:54.799Z,0.58
2023-05-20T12:01:48.315Z,0.59
2023-05-20T12:02:48.356Z,0.59
2023-05-20T12:03:48.411Z,0.60
2023-05-20T12:04:48.282Z,0.58
2023-05-20T12:05:48.233Z,0.60
2023-05-20T12:06:48.210Z,0.62
2023-05-20T12:07:48.193Z,0.59
2023-05-20T12:08:48.181Z,0.61
2023-05-20T12:09:48.159Z,0.59
2023-05-20T12:10:48.134Z,0.62
2023-05-20T12:11:48.133Z,0.62
2023-05-20T12:12:48.112Z,0.61
2023-05-20T12:13:48.106Z,0.60
2023-05-20T12:14:48.064Z,0.61
2023-05-20T12:15:48.084Z,0.62
2023-05-20T12:16:48.041Z,0.60
2023-05-20T12:17:48.041Z,0.61
2023-05-20T12:18:48.032Z,0.61
2023-05-20T12:19:48.061Z,0.61
2023-05-20T12:20:47.939Z,0.61
2023-05-20T12:21:47.923Z,0.57
2023-05-20T12:22:47.894Z,0.61
2023-05-20T12:23:47.878Z,0.60
2023-05-20T12:24:47.856Z,0.61
2023-05-20T12:25:47.839Z,0.62
2023-05-20T12:26:47.810Z,0.62
2023-05-20T12:27:47.789Z,0.61
2023-05-20T12:28:47.773Z,0.59
2023-05-20T12:29:47.769Z,0.59
2023-05-20T12:30:47.723Z,0.58
2023-05-20T12:31:47.734Z,0.60
2023-05-20T12:32:47.686Z,0.61
2023-05-20T12:33:47.656Z,0.59
2023-05-20T12:34:47.625Z,0.61
2023-05-20T12:35:47.600Z,0.60
2023-05-20T12:36:47.598Z,0.62
2023-05-20T12:37:47.609Z,0.61
2023-05-20T12:38:47.647Z,0.61
2023-05-20T12:39:47.647Z,0.62
2023-05-20T12:40:47.672Z,0.63
2023-05-20T12:41:47.681Z,0.61
2023-05-20T12:42:47.696Z,0.61
2023-05-20T12:43:47.707Z,0.62
2023-05-20T12:44:47.724Z,0.61
2023-05-20T12:45:47.763Z,0.63
2023-05-20T12:46:47.769Z,0.60
2023-05-20T12:47:48.652Z,0.61
2023-05-20T12:48:47.777Z,0.60
2023-05-20T12:49:47.786Z,0.61
2023-05-20T12:50:47.801Z,0.58
2023-05-20T12:51:47.810Z,0.61
2023-05-20T12:52:47.830Z,0.62
2023-05-20T12:53:47.842Z,0.61
2023-05-20T12:54:47.858Z,0.61
2023-05-20T12:55:47.876Z,0.62
2023-05-20T12:56:47.884Z,0.63
2023-05-20T12:57:47.893Z,0.62
2023-05-20T12:58:47.911Z,0.61
2023-05-20T12:59:47.920Z,0.59
2023-05-20T13:00:47.998Z,0.63
2023-05-20T13:01:47.973Z,0.62
2023-05-20T13:02:48.139Z,0.64
2023-05-20T13:03:48.070Z,0.62
2023-05-20T13:04:47.993Z,0.64
2023-05-20T13:05:48.007Z,0.59
2023-05-20T13:06:48.018Z,0.58
2023-05-20T13:07:48.037Z,0.62
2023-05-20T13:08:48.060Z,0.62
2023-05-20T13:09:48.052Z,0.61
2023-05-20T13:10:48.063Z,0.61
2023-05-20T13:11:48.133Z,0.61
2023-05-20T13:12:48.113Z,0.62
2023-05-20T13:13:48.106Z,0.62
2023-05-20T13:14:48.123Z,0.62
2023-05-20T13:15:48.116Z,0.60
2023-05-20T13:16:48.143Z,0.62
2023-05-20T13:17:48.220Z,0.63
2023-05-20T13:18:48.172Z,0.62
2023-05-20T13:19:48.187Z,0.61
2023-05-20T13:20:48.181Z,0.61